createdAt,value
2023-04-27T00:00:12.462Z,100.00
2023-04-27T00:02:42.236Z,100.00
2023-04-27T00:05:14.019Z,100.00
2023-04-27T00:07:43.156Z,100.00
2023-04-27T00:10:12.429Z,100.00
2023-04-27T00:12:42.280Z,100.00
2023-04-27T00:15:12.426Z,100.00
2023-04-27T00:17:41.604Z,100.00
2023-04-27T00:20:14.394Z,100.00
2023-04-27T00:22:43.053Z,100.00
2023-04-27T00:25:13.849Z,100.00
2023-04-27T00:27:42.747Z,100.00
2023-04-27T00:30:13.117Z,100.00
2023-04-27T00:32:42.995Z,100.00
2023-04-27T00:35:14.231Z,100.00
2023-04-27T00:37:42.719Z,100.00
2023-04-27T00:40:12.533Z,100.00
2023-04-27T00:42:41.509Z,100.00
2023-04-27T00:45:11.642Z,100.00
2023-04-27T00:47:40.373Z,100.00
2023-04-27T00:50:10.935Z,100.00
2023-04-27T00:52:41.888Z,100.00
2023-04-27T00:55:11.639Z,100.00
2023-04-27T00:57:40.801Z,100.00
2023-04-27T01:00:12.076Z,100.00
2023-04-27T01:02:41.984Z,100.00
2023-04-27T01:05:11.554Z,100.00
2023-04-27T01:07:42.925Z,100.00
2023-04-27T01:10:12.326Z,100.00
2023-04-27T01:12:41.528Z,100.00
2023-04-27T01:15:11.733Z,100.00
2023-04-27T01:17:41.163Z,100.00
2023-04-27T01:20:11.241Z,100.00
2023-04-27T01:22:43.701Z,100.00
2023-04-27T01:25:14.342Z,100.00
2023-04-27T01:27:43.029Z,100.00
2023-04-27T01:30:11.911Z,100.00
2023-04-27T01:32:40.652Z,100.00
2023-04-27T01:35:10.279Z,100.00
2023-04-27T01:37:39.893Z,100.00
2023-04-27T01:40:09.946Z,100.00
2023-04-27T01:42:39.910Z,100.00
2023-04-27T01:45:09.637Z,100.00
2023-04-27T01:47:38.527Z,100.00
2023-04-27T01:50:08.260Z,100.00
2023-04-27T01:52:37.160Z,100.00
2023-04-27T01:55:06.670Z,100.00
2023-04-27T01:57:36.006Z,100.00
2023-04-27T02:00:08.552Z,100.00
2023-04-27T02:02:38.221Z,100.00
2023-04-27T02:05:07.888Z,100.00
2023-04-27T02:07:36.264Z,100.00
2023-04-27T02:10:05.054Z,100.00
2023-04-27T02:12:33.912Z,100.00
2023-04-27T02:15:04.104Z,100.00
2023-04-27T02:17:36.379Z,100.00
2023-04-27T02:20:07.052Z,100.00
2023-04-27T02:22:35.911Z,100.00
2023-04-27T02:25:06.234Z,100.00
2023-04-27T02:27:35.193Z,100.00
2023-04-27T02:30:07.365Z,100.00
2023-04-27T02:32:38.373Z,100.00
2023-04-27T02:35:08.166Z,100.00
2023-04-27T02:37:37.233Z,100.00
2023-04-27T02:40:08.126Z,100.00
2023-04-27T02:42:38.940Z,100.00
2023-04-27T02:45:09.516Z,100.00
2023-04-27T02:47:40.317Z,100.00
2023-04-27T02:50:10.066Z,100.00
2023-04-27T02:52:38.923Z,100.00
2023-04-27T02:55:08.332Z,100.00
2023-04-27T02:57:37.498Z,100.00
2023-04-27T03:00:10.635Z,100.00
2023-04-27T03:02:41.167Z,100.00
2023-04-27T03:05:11.882Z,100.00
2023-04-27T03:07:40.969Z,100.00
2023-04-27T03:10:11.187Z,100.00
2023-04-27T03:12:40.632Z,100.00
2023-04-27T03:15:10.647Z,100.00
2023-04-27T03:17:41.744Z,100.00
2023-04-27T03:20:12.685Z,100.00
2023-04-27T03:22:41.724Z,100.00
2023-04-27T03:25:11.025Z,100.00
2023-04-27T03:27:39.693Z,100.00
2023-04-27T03:30:10.249Z,100.00
2023-04-27T03:32:40.646Z,100.00
2023-04-27T03:35:11.045Z,100.00
2023-04-27T03:37:40.159Z,100.00
2023-04-27T03:40:10.210Z,100.00
2023-04-27T03:42:38.908Z,100.00
2023-04-27T03:45:08.730Z,100.00
2023-04-27T03:47:37.573Z,100.00
2023-04-27T03:50:08.530Z,100.00
2023-04-27T03:52:37.395Z,100.00
2023-04-27T03:55:07.766Z,100.00
2023-04-27T03:57:36.446Z,100.00
2023-04-27T04:00:08.448Z,100.00
2023-04-27T04:02:37.328Z,100.00
2023-04-27T04:05:08.998Z,100.00
2023-04-27T04:07:38.002Z,100.00
2023-04-27T04:10:07.432Z,100.00
2023-04-27T04:12:36.950Z,100.00
2023-04-27T04:15:05.848Z,100.00
2023-04-27T04:17:35.659Z,100.00
2023-04-27T04:20:08.679Z,100.00
2023-04-27T04:22:39.572Z,100.00
2023-04-27T04:25:09.286Z,100.00
2023-04-27T04:27:38.428Z,100.00
2023-04-27T04:30:08.472Z,100.00
2023-04-27T04:32:39.028Z,100.00
2023-04-27T04:35:08.974Z,100.00
2023-04-27T04:37:38.839Z,100.00
2023-04-27T04:40:11.776Z,100.00
2023-04-27T04:42:40.391Z,100.00
2023-04-27T04:45:09.716Z,100.00
2023-04-27T04:47:37.970Z,100.00
2023-04-27T04:50:07.300Z,100.00
2023-04-27T04:52:35.420Z,100.00
2023-04-27T04:55:05.618Z,100.00
2023-04-27T04:57:35.087Z,100.00
2023-04-27T05:00:04.062Z,100.00
2023-04-27T05:02:32.920Z,100.00
2023-04-27T05:05:01.848Z,100.00
2023-04-27T05:07:30.265Z,100.00
2023-04-27T05:09:58.904Z,100.00
2023-04-27T05:12:29.202Z,100.00
2023-04-27T05:14:57.523Z,100.00
2023-04-27T05:17:26.049Z,100.00
2023-04-27T05:19:54.807Z,100.00
2023-04-27T05:22:23.123Z,100.00
2023-04-27T05:24:52.352Z,100.00
2023-04-27T05:27:21.314Z,100.00
2023-04-27T05:29:51.969Z,100.00
2023-04-27T05:32:20.500Z,100.00
2023-04-27T05:34:49.697Z,100.00
2023-04-27T05:37:18.534Z,100.00
2023-04-27T05:39:47.432Z,100.00
2023-04-27T05:42:15.708Z,100.00
2023-04-27T05:44:44.198Z,100.00
2023-04-27T05:47:15.039Z,100.00
2023-04-27T05:49:43.711Z,100.00
2023-04-27T05:52:12.209Z,100.00
2023-04-27T05:54:41.921Z,100.00
2023-04-27T05:57:10.316Z,100.00
2023-04-27T05:59:39.056Z,100.00
2023-04-27T06:02:08.425Z,100.00
2023-04-27T06:04:38.913Z,100.00
2023-04-27T06:07:11.729Z,100.00
2023-04-27T06:09:41.209Z,100.00
2023-04-27T06:12:10.875Z,100.00
2023-04-27T06:14:40.069Z,100.00
2023-04-27T06:17:08.735Z,100.00
2023-04-27T06:19:39.195Z,100.00
2023-04-27T06:22:07.856Z,100.00
2023-04-27T06:24:37.024Z,100.00
2023-04-27T06:27:09.232Z,100.00
2023-04-27T06:29:37.910Z,100.00
2023-04-27T06:32:07.863Z,100.00
2023-04-27T06:34:38.213Z,100.00
2023-04-27T06:37:06.872Z,100.00
2023-04-27T06:39:35.558Z,100.00
2023-04-27T06:42:05.058Z,100.00
2023-04-27T06:44:33.760Z,100.00
2023-04-27T06:47:02.848Z,100.00
2023-04-27T06:49:31.787Z,100.00
2023-04-27T06:52:03.571Z,100.00
2023-04-27T06:54:33.293Z,100.00
2023-04-27T06:57:02.621Z,100.00
2023-04-27T06:59:31.203Z,100.00
2023-04-27T07:02:00.358Z,100.00
2023-04-27T07:04:29.380Z,100.00
2023-04-27T07:07:00.172Z,98.74
2023-04-27T07:09:31.043Z,99.82
2023-04-27T07:12:01.430Z,100.00
2023-04-27T07:14:30.341Z,100.00
2023-04-27T07:16:59.632Z,98.28
2023-04-27T07:19:28.211Z,97.82
2023-04-27T07:21:56.896Z,97.59
2023-04-27T07:24:27.019Z,100.00
2023-04-27T07:26:58.340Z,100.00
2023-04-27T07:29:28.925Z,100.00
2023-04-27T07:31:58.260Z,87.85
2023-04-27T07:34:30.780Z,92.83
2023-04-27T07:37:04.737Z,89.14
2023-04-27T07:39:33.924Z,82.30
2023-04-27T07:42:05.483Z,85.42
2023-04-27T07:44:34.897Z,86.62
2023-04-27T07:47:05.029Z,85.48
2023-04-27T07:49:34.625Z,80.74
2023-04-27T07:52:04.576Z,76.12
2023-04-27T07:54:33.082Z,71.91
2023-04-27T07:57:02.734Z,70.24
2023-04-27T07:59:33.776Z,77.05
2023-04-27T08:04:34.625Z,79.06
2023-04-27T08:07:05.135Z,78.42
2023-04-27T08:09:35.112Z,65.60
2023-04-27T08:12:05.081Z,71.69
2023-04-27T08:14:36.478Z,70.96
2023-04-27T08:17:05.973Z,67.35
2023-04-27T08:19:34.632Z,70.60
2023-04-27T08:22:03.760Z,74.39
2023-04-27T08:24:32.875Z,70.77
2023-04-27T08:27:01.739Z,70.79
2023-04-27T08:29:30.758Z,67.58
2023-04-27T08:32:04.249Z,61.03
2023-04-27T08:34:32.925Z,61.11
2023-04-27T08:37:02.464Z,61.99
2023-04-27T08:39:31.051Z,67.92
2023-04-27T08:42:00.348Z,60.49
2023-04-27T08:44:29.012Z,59.52
2023-04-27T08:46:57.783Z,64.48
2023-04-27T08:49:28.688Z,64.52
2023-04-27T08:51:57.382Z,64.37
2023-04-27T08:54:26.726Z,68.92
2023-04-27T08:56:55.924Z,67.59
2023-04-27T08:59:25.198Z,62.18
2023-04-27T09:01:54.938Z,62.02
2023-04-27T09:04:25.103Z,60.98
2023-04-27T09:06:56.234Z,62.41
2023-04-27T09:09:25.581Z,64.47
2023-04-27T09:11:54.581Z,62.31
2023-04-27T09:14:25.025Z,55.90
2023-04-27T09:16:59.736Z,54.27
2023-04-27T09:19:30.563Z,62.82
2023-04-27T09:22:22.775Z,63.23
2023-04-27T09:24:55.387Z,59.07
2023-04-27T09:27:25.092Z,54.17
2023-04-27T09:29:54.155Z,56.62
2023-04-27T09:32:24.409Z,51.90
2023-04-27T09:34:54.534Z,51.34
2023-04-27T09:37:27.390Z,56.06
2023-04-27T09:39:56.394Z,53.25
2023-04-27T09:42:27.261Z,53.07
2023-04-27T09:44:56.734Z,51.71
2023-04-27T09:47:29.357Z,53.45
2023-04-27T09:50:01.095Z,50.19
2023-04-27T09:52:31.300Z,49.46
2023-04-27T09:55:03.865Z,50.14
2023-04-27T09:57:40.695Z,50.65
2023-04-27T10:00:22.428Z,49.55
2023-04-27T10:03:05.711Z,46.67
2023-04-27T10:05:51.156Z,50.05
2023-04-27T10:08:22.815Z,47.51
2023-04-27T10:10:52.102Z,49.50
2023-04-27T10:13:26.424Z,45.45
2023-04-27T10:15:55.426Z,45.15
2023-04-27T10:18:28.792Z,44.12
2023-04-27T10:20:57.187Z,46.73
2023-04-27T10:23:29.774Z,46.31
2023-04-27T10:26:09.748Z,44.12
2023-04-27T10:28:41.639Z,45.01
2023-04-27T10:31:12.543Z,43.49
2023-04-27T10:33:45.417Z,44.69
2023-04-27T10:36:16.973Z,48.34
2023-04-27T10:38:47.820Z,44.18
2023-04-27T10:41:16.927Z,44.38
2023-04-27T10:43:46.766Z,46.69
2023-04-27T10:46:17.925Z,45.37
2023-04-27T10:48:47.362Z,46.63
2023-04-27T10:51:18.438Z,46.00
2023-04-27T10:53:54.278Z,46.68
2023-04-27T10:56:23.971Z,44.89
2023-04-27T10:58:53.396Z,43.91
2023-04-27T11:01:29.970Z,44.82
2023-04-27T11:04:01.226Z,44.18
2023-04-27T11:06:31.396Z,42.68
2023-04-27T11:09:01.893Z,44.88
2023-04-27T11:11:31.333Z,45.47
2023-04-27T11:14:00.139Z,45.72
2023-04-27T11:16:30.696Z,44.13
2023-04-27T11:19:07.700Z,43.61
2023-04-27T11:21:36.683Z,45.67
2023-04-27T11:24:09.296Z,44.97
2023-04-27T11:26:40.009Z,47.21
2023-04-27T11:29:14.044Z,45.26
2023-04-27T11:31:47.836Z,46.97
2023-04-27T11:34:22.801Z,45.70
2023-04-27T11:37:17.344Z,45.66
2023-04-27T11:39:49.160Z,46.37
2023-04-27T11:42:21.229Z,44.94
2023-04-27T11:44:57.271Z,46.59
2023-04-27T11:47:27.980Z,45.89
2023-04-27T11:50:01.635Z,47.43
2023-04-27T11:52:30.987Z,47.14
2023-04-27T11:55:02.514Z,45.95
2023-04-27T11:57:33.673Z,46.31
2023-04-27T12:00:11.589Z,46.08
2023-04-27T12:02:41.837Z,47.64
2023-04-27T12:05:13.210Z,47.07
2023-04-27T12:07:44.233Z,46.07
2023-04-27T12:10:15.356Z,49.65
2023-04-27T12:12:44.410Z,47.99
2023-04-27T12:15:13.931Z,51.22
2023-04-27T12:17:44.382Z,45.66
2023-04-27T12:20:15.027Z,45.72
2023-04-27T12:22:43.793Z,48.12
2023-04-27T12:25:15.577Z,49.66
2023-04-27T12:27:47.973Z,45.91
2023-04-27T12:30:17.468Z,44.92
2023-04-27T12:32:46.886Z,44.89
2023-04-27T12:35:16.784Z,45.15
2023-04-27T12:37:46.080Z,46.06
2023-04-27T12:40:16.642Z,44.97
2023-04-27T12:42:45.519Z,46.47
2023-04-27T12:45:14.112Z,43.84
2023-04-27T12:48:01.007Z,46.36
2023-04-27T12:50:32.829Z,47.81
2023-04-27T12:53:01.989Z,44.32
2023-04-27T12:55:34.115Z,48.27
2023-04-27T12:58:03.021Z,43.71
2023-04-27T13:00:32.468Z,43.98
2023-04-27T13:03:00.939Z,44.60
2023-04-27T13:05:31.702Z,42.93
2023-04-27T13:08:00.696Z,45.94
2023-04-27T13:10:29.807Z,44.81
2023-04-27T13:13:00.569Z,43.59
2023-04-27T13:15:29.910Z,43.65
2023-04-27T13:17:59.309Z,45.58
2023-04-27T13:20:27.820Z,46.06
2023-04-27T13:22:56.713Z,46.71
2023-04-27T13:25:25.309Z,45.27
2023-04-27T13:27:54.103Z,46.98
2023-04-27T13:30:25.004Z,46.00
2023-04-27T13:32:54.091Z,45.44
2023-04-27T13:35:24.010Z,46.27
2023-04-27T13:37:54.392Z,46.05
2023-04-27T13:40:23.161Z,44.66
2023-04-27T13:42:52.493Z,44.71
2023-04-27T13:45:21.454Z,44.19
2023-04-27T13:47:51.932Z,44.92
2023-04-27T13:50:20.463Z,43.61
2023-04-27T13:52:48.780Z,44.84
2023-04-27T13:55:17.210Z,47.27
2023-04-27T13:57:45.519Z,45.07
2023-04-27T14:00:15.167Z,47.47
2023-04-27T14:02:43.482Z,47.62
2023-04-27T14:05:13.794Z,45.57
2023-04-27T14:07:42.150Z,46.07
2023-04-27T14:10:11.431Z,47.43
2023-04-27T14:12:40.136Z,46.70
2023-04-27T14:15:10.132Z,45.91
2023-04-27T14:17:38.907Z,45.31
2023-04-27T14:20:08.887Z,44.28
2023-04-27T14:22:39.133Z,42.13
2023-04-27T14:25:08.674Z,43.10
2023-04-27T14:27:37.511Z,44.85
2023-04-27T14:30:07.426Z,45.01
2023-04-27T14:32:36.899Z,43.19
2023-04-27T14:35:06.467Z,44.60
2023-04-27T14:37:35.447Z,44.37
2023-04-27T14:40:07.263Z,43.38
2023-04-27T14:42:36.224Z,43.40
2023-04-27T14:45:05.319Z,43.29
2023-04-27T14:47:34.103Z,42.96
2023-04-27T14:50:03.204Z,46.13
2023-04-27T14:52:32.111Z,42.22
2023-04-27T14:55:01.192Z,42.62
2023-04-27T14:57:32.215Z,43.08
2023-04-27T15:00:01.745Z,44.23
2023-04-27T15:02:32.423Z,44.23
2023-04-27T15:05:02.424Z,44.63
2023-04-27T15:07:30.995Z,43.89
2023-04-27T15:09:59.651Z,42.77
2023-04-27T15:12:28.284Z,43.59
2023-04-27T15:14:58.684Z,43.36
2023-04-27T15:17:28.476Z,43.56
2023-04-27T15:19:57.116Z,44.84
2023-04-27T15:22:25.449Z,44.04
2023-04-27T15:24:54.685Z,44.91
2023-04-27T15:27:23.030Z,44.25
2023-04-27T15:29:51.788Z,44.23
2023-04-27T15:32:23.381Z,44.82
2023-04-27T15:34:52.032Z,43.84
2023-04-27T15:37:20.608Z,43.90
2023-04-27T15:39:49.602Z,45.95
2023-04-27T15:42:27.455Z,43.65
2023-04-27T15:44:57.388Z,45.07
2023-04-27T15:47:28.626Z,45.04
2023-04-27T15:49:58.361Z,45.67
2023-04-27T15:52:28.964Z,44.87
2023-04-27T15:54:58.318Z,44.99
2023-04-27T15:57:27.311Z,45.31
2023-04-27T15:59:56.220Z,44.22
2023-04-27T16:02:24.914Z,45.77
2023-04-27T16:04:56.151Z,44.26
2023-04-27T16:07:25.516Z,42.07
2023-04-27T16:09:54.319Z,43.26
2023-04-27T16:12:24.786Z,42.49
2023-04-27T16:14:57.898Z,44.12
2023-04-27T16:17:26.461Z,46.96
2023-04-27T16:19:56.907Z,44.46
2023-04-27T16:22:25.854Z,44.84
2023-04-27T16:24:56.213Z,44.08
2023-04-27T16:27:25.616Z,44.01
2023-04-27T16:29:54.265Z,44.50
2023-04-27T16:32:24.207Z,42.72
2023-04-27T16:34:54.581Z,43.81
2023-04-27T16:37:24.871Z,45.25
2023-04-27T16:39:54.100Z,45.37
2023-04-27T16:42:23.254Z,46.91
2023-04-27T16:44:52.151Z,46.36
2023-04-27T16:47:22.643Z,46.73
2023-04-27T16:49:54.018Z,49.42
2023-04-27T16:52:24.417Z,48.38
2023-04-27T16:54:53.202Z,48.45
2023-04-27T16:57:21.914Z,49.74
2023-04-27T16:59:58.980Z,49.55
2023-04-27T17:02:27.792Z,49.92
2023-04-27T17:04:56.608Z,51.29
2023-04-27T17:07:28.721Z,50.43
2023-04-27T17:09:57.586Z,51.37
2023-04-27T17:12:26.922Z,48.72
2023-04-27T17:14:55.156Z,49.38
2023-04-27T17:17:24.082Z,49.17
2023-04-27T17:19:53.073Z,50.37
2023-04-27T17:22:21.490Z,47.66
2023-04-27T17:24:52.245Z,46.68
2023-04-27T17:27:21.938Z,46.97
2023-04-27T17:29:51.831Z,46.93
2023-04-27T17:32:20.502Z,49.36
2023-04-27T17:34:49.769Z,46.86
2023-04-27T17:37:19.064Z,51.05
2023-04-27T17:39:48.140Z,48.30
2023-04-27T17:42:19.031Z,47.99
2023-04-27T17:44:48.480Z,48.25
2023-04-27T17:47:19.106Z,48.56
2023-04-27T17:49:48.626Z,49.00
2023-04-27T17:52:16.889Z,48.76
2023-04-27T17:54:46.276Z,49.75
2023-04-27T17:57:15.119Z,50.69
2023-04-27T17:59:45.628Z,52.72
2023-04-27T18:02:15.082Z,54.37
2023-04-27T18:04:43.887Z,56.07
2023-04-27T18:07:13.042Z,54.60
2023-04-27T18:09:42.239Z,56.46
2023-04-27T18:12:11.395Z,57.16
2023-04-27T18:14:40.135Z,60.63
2023-04-27T18:17:10.269Z,60.84
2023-04-27T18:19:39.769Z,62.74
2023-04-27T18:22:08.343Z,64.41
2023-04-27T18:24:37.989Z,66.49
2023-04-27T18:27:06.327Z,67.60
2023-04-27T18:29:35.229Z,67.31
2023-04-27T18:32:06.219Z,71.43
2023-04-27T18:34:36.908Z,72.02
2023-04-27T18:37:05.895Z,78.78
2023-04-27T18:39:34.486Z,69.81
2023-04-27T18:42:03.451Z,69.29
2023-04-27T18:44:31.940Z,69.43
2023-04-27T18:47:04.179Z,69.86
2023-04-27T18:49:32.972Z,73.36
2023-04-27T18:52:07.491Z,72.70
2023-04-27T18:54:35.921Z,71.97
2023-04-27T18:57:04.906Z,77.66
2023-04-27T18:59:33.914Z,73.14
2023-04-27T19:02:02.624Z,73.52
2023-04-27T19:04:32.255Z,75.24
2023-04-27T19:07:00.932Z,76.11
2023-04-27T19:09:31.273Z,77.38
2023-04-27T19:12:03.189Z,79.62
2023-04-27T19:14:32.782Z,80.27
2023-04-27T19:17:01.243Z,82.92
2023-04-27T19:19:29.516Z,84.20
2023-04-27T19:21:58.489Z,83.75
2023-04-27T19:24:27.604Z,88.47
2023-04-27T19:26:58.036Z,83.94
2023-04-27T19:29:27.531Z,85.96
2023-04-27T19:31:56.523Z,83.83
2023-04-27T19:34:25.431Z,83.88
2023-04-27T19:36:54.032Z,86.76
2023-04-27T19:39:22.907Z,95.68
2023-04-27T19:41:51.191Z,95.43
2023-04-27T19:44:21.104Z,97.23
2023-04-27T19:46:50.193Z,98.62
2023-04-27T19:49:18.484Z,100.00
2023-04-27T19:51:46.988Z,100.00
2023-04-27T19:54:15.963Z,99.11
2023-04-27T19:56:44.563Z,100.00
2023-04-27T19:59:13.407Z,100.00
2023-04-27T20:01:43.082Z,100.00
2023-04-27T20:04:11.949Z,100.00
2023-04-27T20:06:42.912Z,100.00
2023-04-27T20:09:12.103Z,100.00
2023-04-27T20:11:40.513Z,100.00
2023-04-27T20:14:08.891Z,100.00
2023-04-27T20:16:38.536Z,100.00
2023-04-27T20:19:08.751Z,100.00
2023-04-27T20:21:37.414Z,100.00
2023-04-27T20:24:06.568Z,100.00
2023-04-27T20:26:34.924Z,100.00
2023-04-27T20:29:03.371Z,100.00
2023-04-27T20:31:31.825Z,100.00
2023-04-27T20:34:00.059Z,100.00
2023-04-27T20:36:30.079Z,100.00
2023-04-27T20:39:01.015Z,100.00
2023-04-27T20:41:29.507Z,100.00
2023-04-27T20:43:58.720Z,100.00
2023-04-27T20:46:27.564Z,100.00
2023-04-27T20:48:55.962Z,100.00
2023-04-27T20:51:24.341Z,100.00
2023-04-27T20:53:54.209Z,100.00
2023-04-27T20:56:22.634Z,100.00
2023-04-27T20:58:51.053Z,100.00
2023-04-27T21:01:19.530Z,100.00
2023-04-27T21:03:48.181Z,100.00
2023-04-27T21:06:17.034Z,100.00
2023-04-27T21:08:45.429Z,100.00
2023-04-27T21:11:17.354Z,100.00
2023-04-27T21:13:46.449Z,100.00
2023-04-27T21:16:14.578Z,100.00
2023-04-27T21:18:42.798Z,100.00
2023-04-27T21:21:11.500Z,100.00
2023-04-27T21:23:39.982Z,100.00
2023-04-27T21:26:08.813Z,100.00
2023-04-27T21:28:38.638Z,100.00
2023-04-27T21:31:07.127Z,100.00
2023-04-27T21:33:35.773Z,100.00
2023-04-27T21:36:05.025Z,100.00
2023-04-27T21:38:33.451Z,100.00
2023-04-27T21:41:02.063Z,100.00
2023-04-27T21:43:30.452Z,100.00
2023-04-27T21:46:00.135Z,100.00
2023-04-27T21:48:28.453Z,100.00
2023-04-27T21:50:56.774Z,100.00
2023-04-27T21:53:25.911Z,100.00
2023-04-27T21:55:57.814Z,100.00
2023-04-27T21:58:26.252Z,100.00
2023-04-27T22:00:56.280Z,100.00
2023-04-27T22:03:26.825Z,100.00
2023-04-27T22:05:57.732Z,100.00
2023-04-27T22:08:26.157Z,100.00
2023-04-27T22:10:54.444Z,100.00
2023-04-27T22:13:22.698Z,100.00
2023-04-27T22:15:51.272Z,100.00
2023-04-27T22:18:19.958Z,100.00
2023-04-27T22:20:50.231Z,100.00
2023-04-27T22:23:18.514Z,100.00
2023-04-27T22:25:47.046Z,100.00
2023-04-27T22:28:15.503Z,100.00
2023-04-27T22:30:44.168Z,100.00
2023-04-27T22:33:12.849Z,100.00
2023-04-27T22:35:41.228Z,100.00
2023-04-27T22:38:11.039Z,100.00
2023-04-27T22:40:39.594Z,100.00
2023-04-27T22:43:07.702Z,100.00
2023-04-27T22:45:38.150Z,100.00
2023-04-27T22:48:08.005Z,100.00
2023-04-27T22:50:36.407Z,100.00
2023-04-27T22:53:04.860Z,100.00
2023-04-27T22:55:34.448Z,100.00
2023-04-27T22:58:02.580Z,100.00
2023-04-27T23:00:30.864Z,100.00
2023-04-27T23:02:59.301Z,100.00
2023-04-27T23:05:29.490Z,100.00
2023-04-27T23:07:58.021Z,100.00
2023-04-27T23:10:26.874Z,100.00
2023-04-27T23:12:57.153Z,100.00
2023-04-27T23:15:25.281Z,100.00
2023-04-27T23:17:53.592Z,100.00
2023-04-27T23:20:28.105Z,100.00
2023-04-27T23:22:57.418Z,100.00
2023-04-27T23:25:26.128Z,100.00
2023-04-27T23:27:54.899Z,100.00
2023-04-27T23:30:24.535Z,100.00
2023-04-27T23:32:53.336Z,100.00
2023-04-27T23:35:22.174Z,100.00
2023-04-27T23:37:50.421Z,100.00
2023-04-27T23:40:18.856Z,100.00
2023-04-27T23:42:49.044Z,100.00
2023-04-27T23:45:18.652Z,100.00
2023-04-27T23:47:49.387Z,100.00
2023-04-27T23:50:17.809Z,100.00
2023-04-27T23:52:46.064Z,100.00
2023-04-27T23:55:14.355Z,100.00
2023-04-27T23:57:42.891Z,100.00
